Terminal Aerodrome Forecast
Issued by NWS Lake Charles, LA

Home | Current Version | Previous Version | Text Only | Print | Product List | Glossary On
Versions: 1 2 3 4 5 6 7 8 9 10 11 12 13 14 15 16 17 18
000
FTUS44 KLCH 111100
TAFARA
TAF
KARA 111120Z 1112/1212 00000KT 6SM BR SKC
     FM111300 36002KT P6SM FEW250
     FM111700 36005KT P6SM VCTS SCT050CB
      TEMPO 1117/1121 4SM -TSRA BKN025CB
     FM120000 17005KT P6SM FEW050=

USA.gov is the U.S. government's official web portal to all federal, state and local government web resources and services.